Time;durP1;ratioP1;P1;durP2;ratioP2;P2;SDS_P1;SDS_P2;PMS_P1;PMS_P2;Temp;Humidity;BMP_temperature;BMP_pressure;BME280_temperature;BME280_humidity;BME280_pressure;Samples;Min_cycle;Max_cycle;Signal;HPM_P1;HPM_P2
2022/04/17 06:59:22;;;;;;;4.80;1.90;;;;;;;12.76;26.48;100716.44;4377392;32;34862;-74
2022/04/17 07:01:50;;;;;;;9.48;4.72;;;;;;;13.35;26.46;100716.06;4364833;32;33880;-74
2022/04/17 07:04:18;;;;;;;3.83;1.77;;;;;;;13.39;26.81;100722.88;4365065;32;34130;-74
2022/04/17 07:06:45;;;;;;;4.15;1.62;;;;;;;13.39;25.80;100720.12;4377349;32;32720;-74
2022/04/17 07:09:13;;;;;;;3.85;1.90;;;;;;;12.30;26.05;100717.91;4378368;32;33805;-74
2022/04/17 07:11:40;;;;;;;3.33;1.75;;;;;;;12.23;25.95;100720.59;4377074;32;33897;-74
2022/04/17 07:14:10;;;;;;;3.78;1.77;;;;;;;13.00;26.09;100706.88;4378766;32;34788;-74
2022/04/17 07:16:37;;;;;;;3.25;1.50;;;;;;;13.09;26.60;100710.34;4377618;32;33170;-74
2022/04/17 07:19:05;;;;;;;6.15;1.87;;;;;;;12.40;25.76;100713.75;4365090;32;33740;-74
2022/04/17 07:21:33;;;;;;;3.70;1.83;;;;;;;12.48;26.76;100710.88;4364567;32;33087;-73
2022/04/17 07:24:01;;;;;;;3.45;1.50;;;;;;;13.02;25.92;100718.56;4377432;32;33213;-74
2022/04/17 07:26:29;;;;;;;3.95;1.52;;;;;;;12.97;26.13;100714.72;4352929;32;34078;-74
2022/04/17 07:28:56;;;;;;;3.45;1.65;;;;;;;12.94;25.38;100724.22;4364693;32;32252;-74
2022/04/17 07:31:27;;;;;;;3.30;1.58;;;;;;;13.75;24.95;100706.09;4377076;32;32884;-74
2022/04/17 07:33:55;;;;;;;3.97;1.92;;;;;;;13.75;24.21;100708.88;4363567;32;34879;-74
2022/04/17 07:36:22;;;;;;;4.40;1.80;;;;;;;13.92;25.58;100705.75;4376014;32;33252;-74
2022/04/17 07:38:50;;;;;;;4.37;2.10;;;;;;;14.00;24.51;100703.66;4353197;32;33875;-74
2022/04/17 07:41:20;;;;;;;8.68;2.50;;;;;;;13.78;25.22;100715.88;4352762;32;32914;-73
2022/04/17 07:43:51;;;;;;;3.78;1.87;;;;;;;13.27;25.55;100715.37;4377465;32;34536;-74
2022/04/17 07:46:19;;;;;;;3.67;1.80;;;;;;;13.82;24.83;100704.22;4377513;32;33959;-74
2022/04/17 07:48:48;;;;;;;3.22;1.75;;;;;;;13.98;25.06;100702.16;4376954;32;32359;-74
2022/04/17 07:51:16;;;;;;;4.05;1.80;;;;;;;14.02;25.09;100693.28;4352711;32;35179;-74
2022/04/17 07:53:44;;;;;;;2.92;1.60;;;;;;;14.09;25.30;100694.16;4353058;32;33851;-74
2022/04/17 07:56:14;;;;;;;4.10;1.60;;;;;;;13.74;25.16;100693.38;4365109;32;33209;-74
2022/04/17 07:58:42;;;;;;;3.80;1.80;;;;;;;13.94;25.04;100700.88;4367723;32;33726;-74
2022/04/17 08:01:11;;;;;;;3.53;1.52;;;;;;;13.75;24.97;100692.31;4377316;32;35043;-74
2022/04/17 08:06:10;;;;;;;14.68;8.60;;;;;;;14.39;25.58;100688.25;4389661;32;32935;-74
2022/04/17 08:08:39;;;;;;;5.60;2.53;;;;;;;14.50;24.77;100687.69;4377367;32;34001;-74
2022/04/17 08:11:07;;;;;;;4.25;2.17;;;;;;;14.61;24.24;100687.06;4389849;32;35433;-74
2022/04/17 08:13:35;;;;;;;3.45;1.58;;;;;;;14.78;24.46;100688.34;4364952;32;33893;-74
2022/04/17 08:16:04;;;;;;;4.10;1.55;;;;;;;14.82;23.91;100689.62;4377348;32;34782;-74
2022/04/17 08:18:36;;;;;;;3.20;1.45;;;;;;;14.60;23.71;100676.22;4376681;32;34432;-74
2022/04/17 08:21:07;;;;;;;3.70;1.70;;;;;;;14.69;23.52;100675.81;4376791;32;34410;-74
2022/04/17 08:23:37;;;;;;;3.75;1.60;;;;;;;14.55;24.10;100687.91;4389810;32;32448;-74
2022/04/17 08:26:05;;;;;;;4.62;1.70;;;;;;;14.26;24.12;100679.97;4377178;32;34087;-74
2022/04/17 08:28:34;;;;;;;3.30;1.65;;;;;;;14.74;23.78;100673.25;4377104;32;34740;-74
2022/04/17 08:31:02;;;;;;;4.72;1.70;;;;;;;15.09;24.19;100673.00;4377253;32;34153;-74
2022/04/17 08:33:29;;;;;;;4.90;1.73;;;;;;;14.80;23.13;100666.03;4368419;32;32930;-74
2022/04/17 08:35:59;;;;;;;7.20;2.05;;;;;;;14.73;23.29;100673.47;4385161;32;34604;-74
2022/04/17 08:38:27;;;;;;;5.07;1.55;;;;;;;15.17;23.75;100670.00;4395586;32;33748;-73
2022/04/17 08:40:58;;;;;;;3.30;1.60;;;;;;;15.61;22.99;100662.91;4394626;32;32997;-73
2022/04/17 08:43:27;;;;;;;4.15;1.40;;;;;;;15.66;22.24;100654.78;4377026;32;33806;-70
2022/04/17 08:45:55;;;;;;;4.37;1.90;;;;;;;16.13;25.57;100648.81;4389601;32;33056;-75
2022/04/17 08:48:23;;;;;;;2.17;1.35;;;;;;;15.37;23.96;100664.44;4389017;32;34646;-74
2022/04/17 08:50:53;;;;;;;17.08;8.57;;;;;;;15.48;24.60;100650.81;4376877;32;34508;-74
2022/04/17 08:53:22;;;;;;;4.37;1.83;;;;;;;15.04;23.16;100658.97;4376661;32;33960;-73
2022/04/17 08:55:51;;;;;;;3.33;1.50;;;;;;;15.95;24.14;100656.16;4389221;32;33265;-75
2022/04/17 08:58:19;;;;;;;4.32;2.05;;;;;;;16.12;23.16;100654.59;4377819;32;34015;-74
2022/04/17 09:00:47;;;;;;;3.22;1.73;;;;;;;16.56;23.02;100648.09;4352235;32;34228;-74
2022/04/17 09:03:14;;;;;;;4.90;1.92;;;;;;;16.58;23.28;100637.63;4363872;32;32482;-75
2022/04/17 09:05:42;;;;;;;14.75;9.63;;;;;;;16.47;21.92;100639.19;4376630;32;33372;-74
2022/04/17 09:08:17;;;;;;;4.95;2.58;;;;;;;16.02;21.86;100643.13;4364313;32;34537;-74
2022/04/17 09:10:56;;;;;;;3.05;1.58;;;;;;;15.62;22.14;100634.16;4363959;32;34704;-74
2022/04/17 09:13:32;;;;;;;5.90;2.87;;;;;;;15.45;22.87;100631.88;4376380;32;34717;-74
2022/04/17 09:18:50;;;;;;;6.25;1.60;;;;;;;15.62;23.04;100617.56;4366349;32;34573;-75
2022/04/17 09:21:32;;;;;;;4.05;1.60;;;;;;;15.77;22.31;100612.59;4364174;32;34287;-75
2022/04/17 09:24:13;;;;;;;3.70;1.60;;;;;;;16.28;22.56;100628.25;4364114;32;34156;-74
2022/04/17 09:26:49;;;;;;;3.62;1.70;;;;;;;15.03;23.50;100624.94;4364082;32;33372;-74
2022/04/17 09:29:38;;;;;;;3.35;1.67;;;;;;;16.39;22.36;100613.69;4382402;32;33731;-74
2022/04/17 09:32:08;;;;;;;3.40;1.60;;;;;;;16.31;21.89;100600.09;4361130;32;32951;-74
2022/04/17 09:34:50;;;;;;;3.97;1.80;;;;;;;17.01;22.45;100600.78;4380584;32;33826;-75
2022/04/17 09:37:19;;;;;;;3.92;1.75;;;;;;;17.31;21.75;100598.97;4362374;32;32418;-75
2022/04/17 09:39:52;;;;;;;3.45;1.73;;;;;;;17.42;20.78;100586.25;4375656;32;33201;-74
2022/04/17 09:42:23;;;;;;;5.28;1.90;;;;;;;17.40;21.53;100583.72;4363973;32;34317;-75
2022/04/17 09:44:57;;;;;;;3.53;1.80;;;;;;;17.44;20.73;100587.72;4364116;32;34544;-72
2022/04/17 09:47:27;;;;;;;5.25;2.12;;;;;;;17.78;20.69;100579.84;4376295;32;33546;-72
2022/04/17 09:50:07;;;;;;;19.23;13.93;;;;;;;17.92;21.51;100577.72;4364413;32;33589;-72
2022/04/17 09:52:48;;;;;;;9.63;3.10;;;;;;;17.62;20.26;100577.66;4377204;32;35126;-72
2022/04/17 09:55:28;;;;;;;4.35;1.90;;;;;;;18.28;20.63;100568.41;4377525;32;33863;-71
2022/04/17 09:58:01;;;;;;;3.45;1.60;;;;;;;17.78;19.78;100572.34;4363795;32;34313;-72
2022/04/17 10:00:42;;;;;;;4.28;1.80;;;;;;;18.21;19.95;100556.53;4374634;32;34479;-72
2022/04/17 10:03:16;;;;;;;3.08;1.70;;;;;;;17.34;19.64;100565.22;4363690;32;34042;-72
2022/04/17 10:05:49;;;;;;;5.20;1.50;;;;;;;17.45;19.87;100553.34;4375808;32;32289;-72
2022/04/17 10:08:17;;;;;;;4.22;1.65;;;;;;;17.49;19.23;100563.97;4377043;32;33279;-72
2022/04/17 10:10:47;;;;;;;3.28;1.30;;;;;;;17.61;22.02;100567.62;4388314;32;34562;-72
2022/04/17 10:13:18;;;;;;;11.88;7.70;;;;;;;18.24;19.60;100556.06;4387787;32;34331;-72
2022/04/17 10:15:50;;;;;;;5.20;1.85;;;;;;;18.53;18.67;100543.19;4362873;32;33626;-73
2022/04/17 10:18:19;;;;;;;20.35;12.15;;;;;;;19.27;20.43;100552.72;4375623;32;32945;-72
2022/04/17 10:20:48;;;;;;;9.00;5.18;;;;;;;18.92;19.31;100544.41;4388063;32;33593;-72
2022/04/17 10:23:19;;;;;;;4.18;2.00;;;;;;;18.54;19.51;100545.72;4389808;32;34522;-72
2022/04/17 10:25:51;;;;;;;4.32;2.00;;;;;;;18.77;19.21;100536.59;4390318;32;33869;-72
2022/04/17 10:28:26;;;;;;;4.37;1.62;;;;;;;18.17;20.35;100530.34;4390294;32;34075;-72
2022/04/17 10:31:19;;;;;;;3.95;1.52;;;;;;;18.34;20.37;100523.81;4378763;32;34519;-72
2022/04/17 10:34:07;;;;;;;4.22;2.00;;;;;;;18.84;20.20;100525.34;4363642;32;34001;-72
2022/04/17 10:37:03;;;;;;;5.50;1.70;;;;;;;18.25;19.81;100513.28;4389584;32;34135;-72
2022/04/17 10:39:36;;;;;;;4.12;1.58;;;;;;;18.42;19.56;100505.94;4377808;32;33498;-71
2022/04/17 10:42:12;;;;;;;3.33;1.62;;;;;;;18.75;19.44;100514.56;4389766;32;32130;-72
2022/04/17 10:45:03;;;;;;;4.40;1.77;;;;;;;19.02;18.55;100497.34;4379194;32;34346;-72
2022/04/17 10:47:31;;;;;;;2.55;1.40;;;;;;;19.34;20.01;100495.81;4389303;32;34006;-72
2022/04/17 10:50:01;;;;;;;2.55;1.40;;;;;;;19.25;20.26;100494.53;4390057;32;32973;-72
2022/04/17 10:52:31;;;;;;;15.95;6.25;;;;;;;19.55;21.00;100502.66;4389860;32;34585;-72
2022/04/17 10:55:12;;;;;;;3.97;1.75;;;;;;;19.35;18.65;100502.25;4390390;32;34577;-74
2022/04/17 10:57:48;;;;;;;2.65;1.12;;;;;;;18.76;18.12;100509.88;4377721;32;32413;-75
2022/04/17 11:00:41;;;;;;;4.18;1.48;;;;;;;18.29;17.65;100506.16;4390161;32;33827;-74
2022/04/17 11:03:26;;;;;;;3.87;1.55;;;;;;;18.90;17.79;100490.97;4378082;32;34463;-77
2022/04/17 11:06:09;;;;;;;2.60;1.20;;;;;;;19.09;18.36;100487.78;4365615;32;34382;-75
2022/04/17 11:08:57;;;;;;;4.82;1.40;;;;;;;19.47;17.85;100479.94;4377733;32;33862;-72
2022/04/17 11:11:38;;;;;;;2.37;1.15;;;;;;;18.95;16.94;100482.72;4377571;32;33383;-75
2022/04/17 11:14:13;;;;;;;2.33;1.05;;;;;;;18.85;16.35;100483.34;4365326;32;33753;-76
2022/04/17 11:16:57;;;;;;;4.12;1.48;;;;;;;19.00;16.98;100467.00;4389843;32;34595;-76
2022/04/17 11:19:26;;;;;;;7.90;3.30;;;;;;;18.41;18.12;100470.91;4390579;32;34658;-73
2022/04/17 11:22:02;;;;;;;5.68;2.90;;;;;;;18.80;18.50;100472.13;4401855;32;31199;-76
2022/04/17 11:24:55;;;;;;;4.07;1.62;;;;;;;18.51;18.39;100446.13;4377777;32;34486;-76
2022/04/17 11:27:32;;;;;;;3.40;1.62;;;;;;;18.80;22.06;100455.44;4389648;32;33673;-75
2022/04/17 11:30:00;;;;;;;5.18;1.70;;;;;;;18.62;18.22;100447.25;4378193;32;33648;-79
2022/04/17 11:32:29;;;;;;;3.17;1.30;;;;;;;18.50;17.83;100447.22;4376412;32;33288;-75
2022/04/17 11:35:00;;;;;;;3.47;1.20;;;;;;;18.70;18.06;100458.84;4378390;32;34566;-75
2022/04/17 11:37:29;;;;;;;4.03;1.45;;;;;;;18.38;17.03;100452.78;4377226;32;32969;-75
2022/04/17 11:39:58;;;;;;;3.17;1.60;;;;;;;19.10;17.72;100444.09;4378786;32;34712;-75
2022/04/17 11:42:28;;;;;;;3.70;1.33;;;;;;;19.23;17.17;100441.03;4377420;32;33411;-75
2022/04/17 11:45:00;;;;;;;3.30;1.37;;;;;;;18.71;17.82;100441.06;4389387;32;34570;-75
2022/04/17 11:47:28;;;;;;;2.10;1.27;;;;;;;18.86;17.89;100448.03;4377459;32;35208;-75
2022/04/17 11:49:55;;;;;;;2.95;1.30;;;;;;;19.34;17.66;100433.75;4378448;32;33863;-75
2022/04/17 11:52:23;;;;;;;4.68;2.12;;;;;;;18.73;17.21;100430.56;4389931;32;32692;-76
2022/04/17 11:54:55;;;;;;;5.95;1.65;;;;;;;19.32;18.92;100447.91;4376936;32;33804;-76
2022/04/17 11:57:28;;;;;;;2.00;1.08;;;;;;;19.31;16.82;100435.09;4377208;32;35253;-76
2022/04/17 12:00:05;;;;;;;2.87;1.40;;;;;;;18.60;17.69;100441.94;4377086;32;34731;-76
2022/04/17 12:02:33;;;;;;;2.92;1.42;;;;;;;18.64;17.74;100439.50;4377652;32;34061;-76
2022/04/17 12:05:07;;;;;;;2.53;1.40;;;;;;;19.10;17.12;100421.84;4388854;32;33706;-76
2022/04/17 12:07:35;;;;;;;2.47;1.27;;;;;;;19.76;18.55;100427.84;4389282;32;34350;-75
2022/04/17 12:10:15;;;;;;;3.70;1.30;;;;;;;19.98;16.67;100417.66;4377136;32;34545;-76
2022/04/17 12:12:50;;;;;;;3.12;1.20;;;;;;;19.83;16.71;100421.03;4389650;32;33002;-76
2022/04/17 12:15:24;;;;;;;3.10;1.37;;;;;;;19.06;17.22;100415.09;4377183;32;33231;-76
2022/04/17 12:17:59;;;;;;;2.97;1.25;;;;;;;19.08;16.37;100418.47;4364759;32;33672;-76
2022/04/17 12:20:29;;;;;;;3.30;1.30;;;;;;;19.13;16.69;100401.03;4363087;32;32380;-76
2022/04/17 12:23:02;;;;;;;2.47;1.30;;;;;;;19.48;16.75;100401.72;4391396;32;33319;-76
2022/04/17 12:25:29;;;;;;;4.12;1.20;;;;;;;19.33;17.00;100399.50;4404851;32;33644;-76
2022/04/17 12:28:00;;;;;;;3.37;1.25;;;;;;;19.08;17.31;100401.78;4397037;32;34521;-76
2022/04/17 12:30:28;;;;;;;3.12;1.20;;;;;;;18.31;17.67;100409.53;4389127;32;32752;-76
2022/04/17 12:32:59;;;;;;;2.05;1.05;;;;;;;17.92;18.11;100402.75;4404649;32;33535;-76
2022/04/17 12:35:35;;;;;;;3.10;1.42;;;;;;;18.20;19.09;100404.84;4391965;32;33658;-76
2022/04/17 12:38:05;;;;;;;2.30;1.20;;;;;;;17.59;18.41;100394.94;4392150;32;35448;-75
2022/04/17 12:40:44;;;;;;;3.35;1.23;;;;;;;17.26;18.67;100410.16;4397226;32;33942;-75
2022/04/17 12:43:26;;;;;;;2.37;1.17;;;;;;;17.73;18.80;100399.22;4377030;32;33835;-76
2022/04/17 12:45:56;;;;;;;8.82;4.68;;;;;;;17.49;18.47;100387.22;4393892;32;33850;-75
2022/04/17 12:48:30;;;;;;;5.28;1.90;;;;;;;17.19;18.27;100359.47;4386677;32;32782;-76
2022/04/17 12:51:09;;;;;;;3.50;1.37;;;;;;;17.35;18.76;100382.94;4367990;32;31825;-76
2022/04/17 12:53:38;;;;;;;2.70;1.35;;;;;;;17.07;19.23;100389.09;4376598;32;33223;-75
2022/04/17 12:56:07;;;;;;;3.05;1.37;;;;;;;17.41;18.40;100373.66;4363603;32;32248;-75
2022/04/17 12:58:52;;;;;;;2.92;1.20;;;;;;;18.02;17.90;100378.84;4364980;32;35136;-75
2022/04/17 13:01:27;;;;;;;3.15;1.27;;;;;;;18.06;18.10;100371.75;4376898;32;34147;-76
2022/04/17 13:04:07;;;;;;;3.00;1.10;;;;;;;16.96;18.42;100373.25;4364767;32;191679;-76
2022/04/17 13:06:35;;;;;;;3.08;1.42;;;;;;;17.00;17.85;100353.13;4392966;32;33914;-75
2022/04/17 13:09:13;;;;;;;3.35;1.40;;;;;;;17.52;17.93;100352.59;4392990;32;34326;-76
2022/04/17 13:11:43;;;;;;;6.97;1.75;;;;;;;17.92;18.26;100333.31;4378877;32;34583;-75
2022/04/17 13:14:10;;;;;;;4.18;1.40;;;;;;;17.53;18.72;100341.25;4391485;32;33124;-75
2022/04/17 13:16:57;;;;;;;2.58;1.12;;;;;;;17.05;18.69;100346.88;4384612;32;34672;-76
2022/04/17 13:19:29;;;;;;;2.75;1.20;;;;;;;16.37;18.92;100349.88;4382953;32;34784;-79
2022/04/17 13:21:58;;;;;;;2.53;1.27;;;;;;;15.67;19.63;100347.41;4382659;32;33834;-79
2022/04/17 13:24:27;;;;;;;13.75;7.32;;;;;;;15.79;19.64;100358.59;4363127;32;32954;-78
2022/04/17 13:26:57;;;;;;;13.80;5.15;;;;;;;16.48;19.20;100349.13;4363212;32;32271;-78
2022/04/17 13:29:25;;;;;;;9.70;4.80;;;;;;;15.96;18.96;100350.56;4351594;32;35300;-77
2022/04/17 13:31:52;;;;;;;4.40;1.80;;;;;;;15.82;19.50;100334.06;4351808;32;33783;-78
2022/04/17 13:34:20;;;;;;;2.62;1.37;;;;;;;15.87;19.39;100333.38;4364083;32;31656;-78
2022/04/17 13:38:11;;;;;;;2.83;1.37;;;;;;;15.99;19.48;100327.94;4351660;32;33269;-78
2022/04/17 13:39:36;;;;;;;1.77;1.05;;;;;;;16.37;19.14;100316.62;4365163;32;33108;-77
2022/04/17 13:42:10;;;;;;;5.18;1.55;;;;;;;16.23;19.64;100318.75;4363036;32;34665;-77
2022/04/17 13:44:38;;;;;;;4.22;1.35;;;;;;;16.52;19.01;100324.56;4374464;32;33014;-79
2022/04/17 13:47:09;;;;;;;3.28;1.30;;;;;;;16.35;19.20;100324.34;4363772;32;33961;-75
2022/04/17 13:49:42;;;;;;;2.03;1.17;;;;;;;15.57;19.26;100319.44;4375886;32;34238;-72
2022/04/17 13:52:15;;;;;;;2.40;1.20;;;;;;;15.88;19.24;100317.63;4363612;32;34057;-74
2022/04/17 13:54:48;;;;;;;3.65;1.35;;;;;;;15.31;18.90;100314.91;4375985;32;32835;-74
2022/04/17 13:57:24;;;;;;;2.78;1.30;;;;;;;15.67;19.40;100294.84;4353140;32;32508;-74
2022/04/17 13:59:51;;;;;;;3.08;1.42;;;;;;;15.64;19.68;100309.13;4372579;32;34479;-74
2022/04/17 14:02:26;;;;;;;13.05;7.20;;;;;;;14.99;20.62;100305.78;4390045;32;32197;-74
2022/04/17 14:05:01;;;;;;;10.45;5.37;;;;;;;15.45;20.04;100310.12;4377930;32;33996;-74
2022/04/17 14:07:38;;;;;;;15.45;7.53;;;;;;;15.52;19.69;100290.72;4377904;32;34458;-74
2022/04/17 14:10:10;;;;;;;8.18;4.55;;;;;;;15.64;19.28;100300.81;4378147;32;33626;-74
2022/04/17 14:12:43;;;;;;;4.45;1.50;;;;;;;15.84;19.03;100289.56;4378127;32;33852;-74
2022/04/17 14:15:14;;;;;;;3.78;1.80;;;;;;;16.07;19.67;100284.19;4378093;32;33526;-75
2022/04/17 14:17:44;;;;;;;3.78;1.50;;;;;;;15.21;19.44;100288.84;4379003;32;33788;-74
2022/04/17 14:20:16;;;;;;;3.03;1.33;;;;;;;14.92;20.09;100284.81;4365851;32;33503;-74
2022/04/17 14:22:51;;;;;;;3.60;1.60;;;;;;;15.16;19.70;100289.50;4378820;32;33825;-74
2022/04/17 14:25:22;;;;;;;2.62;1.40;;;;;;;15.59;19.41;100280.47;4365775;32;32263;-74
2022/04/17 14:27:52;;;;;;;7.85;4.43;;;;;;;15.73;20.68;100274.53;4378335;32;34004;-74
2022/04/17 14:30:23;;;;;;;4.32;1.58;;;;;;;14.95;20.18;100273.31;4378982;32;35202;-74
2022/04/17 14:32:54;;;;;;;3.30;1.48;;;;;;;14.87;19.74;100266.12;4377934;32;34700;-74
2022/04/17 14:35:27;;;;;;;3.28;1.33;;;;;;;15.22;20.07;100269.25;4377939;32;33176;-74
2022/04/17 14:37:59;;;;;;;2.67;1.30;;;;;;;14.65;20.33;100262.88;4377844;32;34535;-72
2022/04/17 14:40:30;;;;;;;4.03;1.75;;;;;;;15.11;21.00;100258.91;4382045;32;35197;-76
2022/04/17 14:43:00;;;;;;;12.52;7.45;;;;;;;14.98;20.45;100256.25;4383997;32;33851;-75
2022/04/17 14:45:28;;;;;;;5.30;2.08;;;;;;;14.95;21.05;100262.25;4396547;32;33032;-75
2022/04/17 14:48:02;;;;;;;5.10;2.10;;;;;;;14.85;21.39;100250.84;4401565;32;33650;-75
2022/04/17 14:50:30;;;;;;;3.20;1.50;;;;;;;14.70;20.79;100254.75;4376975;32;34884;-75
2022/04/17 14:53:06;;;;;;;5.47;2.10;;;;;;;14.86;20.99;100252.53;4388934;32;34138;-75
2022/04/17 14:55:42;;;;;;;4.35;1.85;;;;;;;14.77;20.61;100247.28;4387070;32;33054;-75
2022/04/17 14:58:11;;;;;;;4.50;1.60;;;;;;;14.43;21.18;100253.22;4390012;32;34527;-75
2022/04/17 15:00:40;;;;;;;4.20;1.58;;;;;;;14.48;20.88;100256.16;4389758;32;34293;-75
2022/04/17 15:03:07;;;;;;;2.72;1.20;;;;;;;14.92;20.25;100238.69;4377534;32;33409;-75
2022/04/17 15:05:41;;;;;;;3.25;1.12;;;;;;;14.90;20.24;100239.97;4376917;32;33492;-75
2022/04/17 15:08:09;;;;;;;3.60;1.50;;;;;;;14.85;20.26;100234.28;4380905;32;34762;-74
2022/04/17 15:10:47;;;;;;;3.05;1.65;;;;;;;15.16;20.84;100231.44;4384458;32;34166;-75
2022/04/17 15:13:24;;;;;;;2.87;1.20;;;;;;;14.35;20.35;100234.09;4377905;32;33864;-74
2022/04/17 15:15:51;;;;;;;4.37;1.80;;;;;;;14.66;20.41;100225.88;4377591;32;33887;-74
2022/04/17 15:18:20;;;;;;;2.58;1.40;;;;;;;14.41;21.06;100222.19;4366569;32;33551;-75
2022/04/17 15:20:48;;;;;;;2.62;1.15;;;;;;;14.73;21.04;100220.31;4389554;32;33126;-75
2022/04/17 15:23:18;;;;;;;4.37;1.35;;;;;;;14.61;21.22;100220.19;4373589;32;32601;-73
2022/04/17 15:25:48;;;;;;;2.65;1.33;;;;;;;14.65;20.78;100221.44;4403710;32;33383;-75
2022/04/17 15:28:16;;;;;;;5.70;3.20;;;;;;;14.80;20.87;100212.84;4379990;32;32264;-75
2022/04/17 15:30:43;;;;;;;20.40;11.65;;;;;;;15.00;21.42;100207.13;4380220;32;34217;-75
2022/04/17 15:33:14;;;;;;;16.12;8.27;;;;;;;14.76;21.57;100215.19;4392769;32;33974;-76
2022/04/17 15:35:43;;;;;;;7.32;3.85;;;;;;;14.47;21.06;100204.75;4375920;32;33240;-76
2022/04/17 15:38:12;;;;;;;4.15;1.80;;;;;;;14.73;21.27;100215.62;4357963;32;32293;-75
2022/04/17 15:40:42;;;;;;;4.55;1.80;;;;;;;14.55;21.02;100206.41;4393998;32;32952;-75
2022/04/17 15:48:46;;;;;;;2.30;1.35;;;;;;;14.79;21.57;100200.09;4390870;32;32493;-76
2022/04/17 15:51:29;;;;;;;4.53;1.98;;;;;;;14.98;21.46;100196.28;4390911;32;35145;-76
2022/04/17 15:54:05;;;;;;;3.47;1.33;;;;;;;15.06;21.71;100195.16;4397877;32;34678;-76
2022/04/17 15:56:35;;;;;;;3.75;1.70;;;;;;;14.17;22.00;100198.97;4390836;32;33344;-76
2022/04/17 15:59:03;;;;;;;4.60;1.45;;;;;;;14.24;22.03;100204.47;4376780;32;34041;-74
2022/04/17 16:01:34;;;;;;;3.22;1.40;;;;;;;14.42;22.82;100197.13;4388095;32;34234;-74
2022/04/17 16:04:08;;;;;;;3.85;1.25;;;;;;;13.99;22.71;100196.91;4397794;32;32456;-76
2022/04/17 16:06:42;;;;;;;3.45;1.62;;;;;;;14.02;22.48;100193.72;4389909;32;33981;-76
2022/04/17 16:09:14;;;;;;;3.75;1.50;;;;;;;13.58;22.68;100188.16;4395494;32;34824;-76
2022/04/17 16:11:44;;;;;;;4.30;1.90;;;;;;;13.87;22.73;100197.81;4393631;32;33737;-76
2022/04/17 16:14:18;;;;;;;3.50;1.58;;;;;;;14.22;22.72;100203.81;4404114;32;32285;-76
2022/04/17 16:16:49;;;;;;;5.03;1.65;;;;;;;14.22;22.54;100199.16;4397018;32;34101;-76
2022/04/17 16:19:19;;;;;;;5.12;1.40;;;;;;;14.42;22.55;100188.84;4375925;32;32229;-76
2022/04/17 16:21:50;;;;;;;3.60;1.40;;;;;;;14.32;22.44;100191.22;4379211;32;34297;-76
2022/04/17 16:24:25;;;;;;;8.48;2.55;;;;;;;14.45;22.92;100185.66;4398027;32;32451;-76
2022/04/17 16:26:55;;;;;;;6.37;2.80;;;;;;;13.71;23.09;100188.94;4376434;32;33233;-76
2022/04/17 16:29:26;;;;;;;7.37;3.08;;;;;;;14.27;23.12;100190.22;4389595;32;33802;-76
2022/04/17 16:31:56;;;;;;;20.12;10.95;;;;;;;14.02;23.12;100188.19;4377058;32;32869;-76
2022/04/17 16:34:24;;;;;;;5.22;2.60;;;;;;;14.16;23.29;100191.75;4376313;32;35292;-76
2022/04/17 16:36:52;;;;;;;4.43;2.00;;;;;;;13.99;22.87;100185.87;4388176;32;33024;-76
2022/04/17 16:39:27;;;;;;;9.65;4.97;;;;;;;13.90;23.13;100195.47;4376106;32;34851;-76
2022/04/17 16:41:55;;;;;;;11.38;7.15;;;;;;;14.16;23.10;100186.22;4376254;32;34438;-76
2022/04/17 16:44:25;;;;;;;6.15;2.80;;;;;;;14.22;23.49;100190.88;4390527;32;32536;-76
2022/04/17 16:46:53;;;;;;;17.17;9.57;;;;;;;13.73;23.63;100194.25;4376714;32;33968;-76
2022/04/17 16:49:23;;;;;;;17.58;9.35;;;;;;;13.74;24.10;100198.72;4363507;32;34667;-76
2022/04/17 16:51:51;;;;;;;8.35;4.50;;;;;;;13.68;23.60;100194.06;4376278;32;35252;-76
2022/04/17 16:54:21;;;;;;;5.30;2.47;;;;;;;13.96;23.88;100197.34;4376915;32;33670;-76
2022/04/17 16:56:49;;;;;;;3.95;1.50;;;;;;;13.64;23.62;100204.72;4377077;32;33274;-76
2022/04/17 16:59:16;;;;;;;4.43;1.80;;;;;;;13.83;23.82;100197.41;4375911;32;33737;-76
2022/04/17 17:01:48;;;;;;;6.07;2.15;;;;;;;13.97;23.44;100207.31;4398845;32;34013;-76
2022/04/17 17:04:16;;;;;;;5.18;1.80;;;;;;;14.08;23.46;100192.00;4395032;32;33632;-76
2022/04/17 17:06:43;;;;;;;3.50;1.80;;;;;;;13.69;23.88;100204.88;4396887;32;32160;-76
2022/04/17 17:09:12;;;;;;;6.37;3.22;;;;;;;13.71;23.97;100205.50;4385455;32;33964;-76
2022/04/17 17:11:41;;;;;;;4.80;2.20;;;;;;;14.03;24.10;100211.13;4389217;32;34058;-76
2022/04/17 17:14:08;;;;;;;5.95;2.40;;;;;;;14.18;24.44;100212.56;4390381;32;33935;-76
2022/04/17 17:16:37;;;;;;;4.53;2.25;;;;;;;14.11;24.15;100206.22;4375539;32;32578;-76
2022/04/17 17:19:05;;;;;;;4.32;2.33;;;;;;;14.25;24.10;100217.19;4374802;32;32402;-76
2022/04/17 17:21:33;;;;;;;5.30;2.10;;;;;;;14.32;24.25;100223.50;4381554;32;35203;-76
2022/04/17 17:24:00;;;;;;;5.25;2.60;;;;;;;14.42;23.94;100221.13;4392802;32;33720;-76
2022/04/17 17:26:28;;;;;;;6.57;4.07;;;;;;;14.30;24.03;100215.44;4395911;32;33344;-76
2022/04/17 17:28:55;;;;;;;12.85;7.43;;;;;;;14.38;24.08;100217.09;4383630;32;34518;-76
2022/04/17 17:31:23;;;;;;;55.63;34.25;;;;;;;14.13;24.80;100219.78;4376340;32;32929;-76
2022/04/17 17:33:51;;;;;;;11.27;6.47;;;;;;;14.15;24.65;100212.12;4378208;32;34029;-76
2022/04/17 17:36:18;;;;;;;8.38;4.28;;;;;;;14.26;24.26;100219.72;4399833;32;32091;-76
2022/04/17 17:38:46;;;;;;;6.75;3.70;;;;;;;14.28;24.41;100219.50;4384911;32;32206;-76
2022/04/17 17:41:14;;;;;;;6.43;2.90;;;;;;;14.26;24.41;100219.72;4384431;32;35415;-76
2022/04/17 17:43:41;;;;;;;5.32;2.20;;;;;;;14.15;24.32;100223.19;4398186;32;33835;-76
2022/04/17 17:46:12;;;;;;;6.55;2.95;;;;;;;14.05;24.47;100220.88;4396196;32;31966;-77
2022/04/17 17:48:45;;;;;;;6.70;3.30;;;;;;;14.00;24.99;100223.44;4371046;32;33632;-75
2022/04/17 17:51:13;;;;;;;6.35;2.90;;;;;;;14.14;25.60;100227.84;4389638;32;32988;-76
2022/04/17 17:53:44;;;;;;;5.65;2.47;;;;;;;13.99;25.77;100234.72;4389960;32;33765;-75
2022/04/17 17:56:13;;;;;;;6.32;2.47;;;;;;;13.88;25.96;100227.09;4384197;32;32654;-75
2022/04/17 17:58:51;;;;;;;7.32;3.62;;;;;;;13.58;24.79;100240.56;4388904;32;34547;-76
2022/04/17 18:01:25;;;;;;;8.68;3.37;;;;;;;13.60;25.56;100233.78;4388456;32;34108;-77
2022/04/17 18:03:57;;;;;;;7.85;3.70;;;;;;;13.89;25.42;100237.06;4383283;32;34753;-76
2022/04/17 18:06:29;;;;;;;8.98;3.80;;;;;;;13.92;26.01;100229.22;4383711;32;33169;-76
2022/04/17 18:14:30;;;;;;;6.57;3.15;;;;;;;13.83;26.67;100236.03;4369410;32;32721;-76
2022/04/17 18:17:01;;;;;;;5.60;2.30;;;;;;;13.80;27.09;100241.97;4362267;32;33755;-76
2022/04/17 18:19:32;;;;;;;8.70;4.03;;;;;;;13.76;27.32;100238.81;4355359;32;33267;-76
2022/04/17 18:24:51;;;;;;;7.50;3.25;;;;;;;13.38;27.93;100235.94;4377507;32;33979;-76
2022/04/17 18:27:19;;;;;;;5.40;2.40;;;;;;;13.25;27.96;100240.59;4380959;32;33495;-76
2022/04/17 18:29:46;;;;;;;5.85;2.58;;;;;;;13.12;27.75;100244.19;4382553;32;34611;-76
2022/04/17 18:32:14;;;;;;;4.75;2.20;;;;;;;12.85;27.86;100246.94;4373252;32;35380;-76
2022/04/17 18:34:42;;;;;;;4.72;2.30;;;;;;;12.99;27.80;100252.47;4383816;32;33895;-76
2022/04/17 18:37:18;;;;;;;3.65;1.75;;;;;;;13.05;27.72;100255.19;4372571;32;33982;-74
2022/04/17 18:39:53;;;;;;;4.50;1.87;;;;;;;13.25;37.82;100252.47;4370300;32;33306;-76
2022/04/17 18:42:25;;;;;;;6.35;1.83;;;;;;;13.13;29.43;100254.13;4389158;32;34252;-76
2022/04/17 18:44:57;;;;;;;4.07;1.80;;;;;;;13.15;27.66;100254.78;4389727;32;34125;-76
2022/04/17 18:47:33;;;;;;;2.80;1.42;;;;;;;13.19;27.29;100256.06;4377769;32;33348;-76
2022/04/17 18:50:01;;;;;;;4.70;2.03;;;;;;;12.90;27.33;100250.97;4373342;32;33846;-76
2022/04/17 18:52:38;;;;;;;7.87;4.43;;;;;;;12.80;28.15;100254.13;4385683;32;34990;-77
2022/04/17 18:55:06;;;;;;;7.12;4.37;;;;;;;12.97;27.68;100251.81;4352856;32;32841;-76
2022/04/17 18:57:33;;;;;;;5.07;2.28;;;;;;;12.82;27.49;100261.13;4382624;32;33183;-76
2022/04/17 19:00:08;;;;;;;5.80;2.30;;;;;;;12.81;28.31;100256.69;4391748;32;33363;-76
2022/04/17 19:02:38;;;;;;;6.28;2.80;;;;;;;12.79;28.53;100253.28;4379136;32;35436;-76